Time;durP1;ratioP1;P1;durP2;ratioP2;P2;SDS_P1;SDS_P2;PMS_P1;PMS_P2;Temp;Humidity;BMP_temperature;BMP_pressure;BME280_temperature;BME280_humidity;BME280_pressure;Samples;Min_cycle;Max_cycle;Signal;HPM_P1;HPM_P2
2021/12/22 00:01:39;;;;;;;52.37;29.13;;;;;;;-7.19;89.88;102456.13;10458757;28;20017;-84
2021/12/22 00:06:40;;;;;;;52.70;30.07;;;;;;;-7.11;90.51;102451.41;10457048;28;20481;-85
2021/12/22 00:11:40;;;;;;;51.60;31.53;;;;;;;-7.12;90.45;102456.28;10457496;28;20071;-84
2021/12/22 00:16:41;;;;;;;51.63;29.97;;;;;;;-7.24;90.53;102461.47;10473825;28;20025;-84
2021/12/22 00:21:41;;;;;;;48.67;29.07;;;;;;;-7.26;90.65;102457.78;10456672;28;20067;-84
2021/12/22 00:26:42;;;;;;;49.47;30.33;;;;;;;-7.28;90.65;102442.97;10456116;28;20104;-83
2021/12/22 00:31:56;;;;;;;50.40;29.80;;;;;;;-7.21;91.00;102452.44;10440075;28;20449;-81
2021/12/22 00:36:56;;;;;;;53.97;28.50;;;;;;;-7.37;90.79;102461.31;10442387;28;20041;-84
2021/12/22 00:41:57;;;;;;;41.43;25.57;;;;;;;-7.43;89.68;102456.97;10456666;28;20059;-84
2021/12/22 00:46:57;;;;;;;41.00;23.83;;;;;;;-7.16;90.30;102459.09;10489939;28;20048;-84
2021/12/22 00:51:58;;;;;;;44.23;25.70;;;;;;;-7.11;89.81;102453.94;10455625;28;20079;-84
2021/12/22 00:57:04;;;;;;;37.90;25.60;;;;;;;-7.25;90.11;102464.72;10473084;28;20481;-83
2021/12/22 01:02:06;;;;;;;38.50;24.27;;;;;;;-7.33;89.78;102460.13;10456239;28;20036;-83
2021/12/22 01:07:07;;;;;;;47.38;27.05;;;;;;;-7.53;89.97;102469.94;10438670;28;20124;-84
2021/12/22 01:12:08;;;;;;;51.03;27.77;;;;;;;-7.58;90.07;102474.38;10456241;28;20040;-84
2021/12/22 01:17:11;;;;;;;46.67;25.33;;;;;;;-7.69;90.02;102465.19;10455206;28;20025;-83
2021/12/22 01:22:30;;;;;;;45.70;25.03;;;;;;;-7.47;90.33;102464.84;10472426;28;20029;-85
2021/12/22 01:27:38;;;;;;;41.93;26.03;;;;;;;-7.34;90.26;102467.53;10454224;28;20124;-83
2021/12/22 01:32:38;;;;;;;40.93;24.80;;;;;;;-7.29;90.82;102458.94;10439678;28;20053;-83
2021/12/22 01:37:39;;;;;;;47.60;28.70;;;;;;;-7.28;90.77;102451.53;10454524;28;20037;-84
2021/12/22 01:42:40;;;;;;;44.00;22.90;;;;;;;-7.28;90.47;102458.25;10454432;28;20033;-83
2021/12/22 01:53:05;;;;;;;36.77;21.53;;;;;;;-7.46;90.04;102449.78;10453309;28;20033;-84
2021/12/22 01:58:07;;;;;;;35.25;21.38;;;;;;;-7.43;90.05;102455.31;10453632;28;20036;-83
2021/12/22 02:03:07;;;;;;;31.00;20.00;;;;;;;-7.31;90.33;102462.88;10438327;28;20033;-83
2021/12/22 02:08:08;;;;;;;32.23;19.73;;;;;;;-7.35;90.43;102450.44;10452221;28;20061;-83
2021/12/22 02:13:14;;;;;;;23.03;14.50;;;;;;;-7.50;90.64;102452.59;10453846;28;20102;-83
2021/12/22 02:18:19;;;;;;;37.00;21.40;;;;;;;-7.49;90.58;102451.00;10452953;28;20037;-83
2021/12/22 02:23:19;;;;;;;38.05;20.65;;;;;;;-7.48;90.48;102461.38;10437626;28;20539;-83
2021/12/22 02:28:25;;;;;;;30.10;18.73;;;;;;;-7.48;90.43;102463.91;10453535;28;20106;-84
2021/12/22 02:33:34;;;;;;;42.33;24.33;;;;;;;-7.46;90.90;102456.53;10453350;28;20034;-84
2021/12/22 02:38:40;;;;;;;26.33;17.10;;;;;;;-7.68;90.47;102445.78;10438224;28;20082;-84
2021/12/22 02:43:47;;;;;;;26.07;15.90;;;;;;;-7.80;90.11;102449.97;10468782;28;20025;-83
2021/12/22 02:48:48;;;;;;;33.17;16.83;;;;;;;-7.82;90.15;102444.69;10451575;28;20024;-84
2021/12/22 03:04:30;;;;;;;30.33;15.93;;;;;;;-7.79;89.24;102446.75;10454195;28;20025;-84
2021/12/22 03:09:33;;;;;;;26.30;13.87;;;;;;;-7.73;89.44;102456.91;10454675;28;20049;-84
2021/12/22 03:14:33;;;;;;;28.90;14.50;;;;;;;-7.76;89.78;102451.38;10478478;28;20056;-84
2021/12/22 03:19:34;;;;;;;32.60;19.17;;;;;;;-7.73;90.15;102447.63;10442257;28;20071;-84
2021/12/22 03:24:35;;;;;;;30.35;16.67;;;;;;;-7.87;90.24;102454.88;10460295;28;20044;-84
2021/12/22 03:29:37;;;;;;;30.38;16.05;;;;;;;-7.77;89.92;102458.06;10460003;28;20063;-84
2021/12/22 03:34:38;;;;;;;23.25;15.30;;;;;;;-7.83;90.10;102447.94;10443538;28;20485;-84
2021/12/22 03:39:39;;;;;;;25.25;16.33;;;;;;;-7.72;89.31;102446.94;10458302;28;20041;-84
2021/12/22 03:44:39;;;;;;;15.87;10.77;;;;;;;-7.77;89.34;102452.06;10425062;28;20039;-84
2021/12/22 03:49:40;;;;;;;25.13;14.17;;;;;;;-7.85;89.74;102454.41;10457899;28;20056;-84
2021/12/22 03:54:40;;;;;;;27.90;15.63;;;;;;;-7.90;89.87;102449.34;10442722;28;20021;-84
2021/12/22 03:59:41;;;;;;;21.67;12.27;;;;;;;-7.91;89.69;102453.50;10457044;28;20083;-83
2021/12/22 04:04:44;;;;;;;24.23;14.33;;;;;;;-8.01;90.01;102456.31;10458813;28;20076;-84
2021/12/22 04:09:45;;;;;;;25.03;16.07;;;;;;;-7.97;89.92;102463.69;10457508;28;20037;-84
2021/12/22 04:14:46;;;;;;;24.48;14.85;;;;;;;-8.08;89.91;102457.75;10458650;28;20029;-84
2021/12/22 04:19:46;;;;;;;21.93;13.90;;;;;;;-8.18;90.23;102463.06;10472837;28;20118;-84
2021/12/22 04:24:47;;;;;;;24.80;14.10;;;;;;;-8.11;90.08;102461.66;10475494;28;20037;-84
2021/12/22 04:29:47;;;;;;;26.97;15.83;;;;;;;-8.16;90.20;102446.44;10456285;28;20120;-85
2021/12/22 04:34:48;;;;;;;21.43;13.80;;;;;;;-8.08;89.89;102452.66;10439600;28;20136;-84
2021/12/22 04:39:48;;;;;;;24.63;14.53;;;;;;;-7.99;89.71;102447.28;10456933;28;20056;-84
2021/12/22 04:44:53;;;;;;;23.90;12.50;;;;;;;-7.92;90.11;102449.13;10456554;28;20119;-84
2021/12/22 04:49:53;;;;;;;23.50;15.53;;;;;;;-7.87;90.19;102453.25;10457463;28;20443;-84
2021/12/22 04:55:04;;;;;;;20.20;14.00;;;;;;;-7.78;89.93;102447.69;10456944;28;20114;-84
2021/12/22 05:00:06;;;;;;;23.60;12.83;;;;;;;-7.87;90.00;102439.63;10439762;28;20040;-84
2021/12/22 05:05:07;;;;;;;26.63;13.67;;;;;;;-7.82;90.08;102431.97;10422657;28;20036;-84
2021/12/22 05:10:10;;;;;;;25.20;12.47;;;;;;;-7.75;89.67;102432.88;10451680;28;20496;-86
2021/12/22 05:15:11;;;;;;;24.27;14.17;;;;;;;-7.84;89.92;102429.91;10453520;28;20099;-87
2021/12/22 05:20:15;;;;;;;16.77;9.80;;;;;;;-7.99;89.61;102443.84;10455297;28;20295;-87
2021/12/22 05:25:16;;;;;;;23.10;13.07;;;;;;;-8.07;90.09;102435.06;10454619;28;20041;-87
2021/12/22 05:30:16;;;;;;;19.13;11.00;;;;;;;-8.09;89.84;102425.41;10486696;28;20037;-83
2021/12/22 05:35:17;;;;;;;29.83;14.10;;;;;;;-8.14;89.96;102424.72;10452273;28;20047;-85
2021/12/22 05:40:18;;;;;;;27.90;13.87;;;;;;;-8.26;89.70;102417.13;10455151;28;20131;-85
2021/12/22 05:45:18;;;;;;;28.93;14.27;;;;;;;-8.17;89.45;102424.25;10436199;28;20119;-83
2021/12/22 05:50:20;;;;;;;21.63;13.80;;;;;;;-8.09;89.36;102415.22;10467861;28;20397;-83
2021/12/22 05:55:24;;;;;;;26.20;14.57;;;;;;;-8.06;89.82;102411.50;10451934;28;20021;-89
2021/12/22 06:00:27;;;;;;;23.30;13.47;;;;;;;-8.14;89.44;102407.84;10435678;28;20033;-86
2021/12/22 06:05:28;;;;;;;27.23;13.35;;;;;;;-8.27;89.97;102405.13;10450903;28;20488;-85
2021/12/22 06:10:28;;;;;;;22.07;12.77;;;;;;;-8.20;89.69;102408.56;10427359;28;20025;-81
2021/12/22 06:15:29;;;;;;;20.83;12.77;;;;;;;-8.27;89.51;102405.13;10449882;28;20029;-84
2021/12/22 06:20:30;;;;;;;26.23;13.00;;;;;;;-8.26;90.15;102416.22;10466452;28;20112;-85
2021/12/22 06:25:39;;;;;;;26.65;13.27;;;;;;;-8.26;90.03;102411.13;10431855;28;20033;-82
2021/12/22 06:30:43;;;;;;;23.03;12.53;;;;;;;-8.23;90.06;102406.50;10432379;28;20481;-81
2021/12/22 06:35:51;;;;;;;23.43;14.93;;;;;;;-8.22;90.11;102398.19;10482454;28;20083;-82
2021/12/22 06:40:55;;;;;;;21.57;13.57;;;;;;;-8.15;90.28;102389.84;10465171;28;20773;-81
2021/12/22 06:45:56;;;;;;;24.80;12.13;;;;;;;-8.17;90.05;102396.31;10464259;28;20373;-83
2021/12/22 06:50:56;;;;;;;20.07;13.67;;;;;;;-8.29;90.07;102398.88;10451395;28;20021;-81
2021/12/22 06:55:57;;;;;;;20.83;13.47;;;;;;;-8.30;90.04;102398.69;10457613;28;20033;-81
2021/12/22 07:00:59;;;;;;;21.13;13.77;;;;;;;-8.39;90.12;102410.94;10481137;28;20362;-81
2021/12/22 07:05:59;;;;;;;18.33;13.37;;;;;;;-8.45;89.58;102408.44;10461693;28;20040;-81
2021/12/22 07:11:00;;;;;;;17.77;12.27;;;;;;;-8.44;89.80;102415.34;10459219;28;20408;-81
2021/12/22 07:16:00;;;;;;;19.60;9.70;;;;;;;-8.51;89.71;102411.69;10441898;28;20076;-80
2021/12/22 07:21:01;;;;;;;23.37;11.63;;;;;;;-8.42;90.14;102407.94;10464702;28;20120;-81
2021/12/22 07:26:02;;;;;;;18.88;11.48;;;;;;;-8.42;90.21;102410.47;10459937;28;20036;-81
2021/12/22 07:31:03;;;;;;;21.67;12.80;;;;;;;-8.55;89.80;102412.88;10434203;28;20074;-80
2021/12/22 07:36:04;;;;;;;23.90;13.07;;;;;;;-8.45;90.37;102413.50;10459850;28;20130;-82
2021/12/22 07:41:06;;;;;;;26.03;12.67;;;;;;;-8.33;90.19;102411.84;10492253;28;20041;-81
2021/12/22 07:46:08;;;;;;;26.13;14.37;;;;;;;-8.37;90.22;102414.63;10441355;28;20587;-81
2021/12/22 07:51:09;;;;;;;19.23;11.70;;;;;;;-8.45;90.35;102410.97;10437877;28;20032;-81
2021/12/22 07:56:19;;;;;;;18.23;13.57;;;;;;;-8.51;89.86;102411.69;10467257;28;20032;-84
2021/12/22 08:01:21;;;;;;;18.77;11.37;;;;;;;-8.41;90.44;102417.41;10446243;28;20017;-81
2021/12/22 08:06:21;;;;;;;25.70;13.88;;;;;;;-8.27;90.21;102416.91;10457954;28;20029;-87
2021/12/22 08:11:22;;;;;;;19.93;11.87;;;;;;;-8.10;90.32;102414.28;10462864;28;20025;-87
2021/12/22 08:16:22;;;;;;;22.50;14.67;;;;;;;-8.00;90.87;102412.41;10468362;28;20458;-82
2021/12/22 08:21:23;;;;;;;18.03;11.40;;;;;;;-7.89;90.92;102407.97;10471155;28;20056;-85
2021/12/22 08:26:29;;;;;;;20.97;12.43;;;;;;;-7.76;91.08;102408.16;10467363;28;20021;-83
2021/12/22 08:31:32;;;;;;;32.67;16.13;;;;;;;-7.58;91.12;102405.72;10452435;28;20511;-82
2021/12/22 08:41:51;;;;;;;28.13;15.53;;;;;;;-7.27;91.42;102397.41;10454912;28;20033;-83
2021/12/22 08:46:52;;;;;;;19.97;12.00;;;;;;;-7.10;90.91;102394.72;10466848;28;20476;-80
2021/12/22 08:51:52;;;;;;;21.47;13.57;;;;;;;-6.90;90.72;102385.53;10451987;28;20049;-81
2021/12/22 08:56:55;;;;;;;25.10;14.60;;;;;;;-6.74;90.95;102392.09;10454904;28;20083;-80
2021/12/22 09:01:56;;;;;;;21.73;13.25;;;;;;;-6.51;90.90;102386.75;10454348;28;20473;-83
2021/12/22 09:06:56;;;;;;;22.73;16.03;;;;;;;-6.21;91.00;102395.19;10434339;28;20024;-80
2021/12/22 09:11:57;;;;;;;27.03;15.07;;;;;;;-5.95;91.47;102404.59;10436359;28;20056;-82
2021/12/22 09:16:57;;;;;;;25.67;16.63;;;;;;;-5.80;91.25;102399.06;10436557;28;20123;-80
2021/12/22 09:21:58;;;;;;;21.57;13.87;;;;;;;-5.68;91.02;102388.69;10453977;28;20053;-82
2021/12/22 09:26:58;;;;;;;24.07;15.57;;;;;;;-5.48;90.63;102393.94;10484663;28;20489;-82
2021/12/22 09:32:28;;;;;;;26.73;17.07;;;;;;;-5.24;90.64;102380.13;10453665;28;20120;-82
2021/12/22 09:37:29;;;;;;;24.15;14.95;;;;;;;-4.98;90.89;102380.16;10433517;28;20527;-83
2021/12/22 09:42:29;;;;;;;23.17;16.17;;;;;;;-4.68;91.04;102384.97;10454168;28;20083;-84
2021/12/22 09:47:40;;;;;;;24.07;16.23;;;;;;;-4.24;90.73;102384.78;10453915;28;20119;-82
2021/12/22 09:52:41;;;;;;;25.87;16.97;;;;;;;-3.78;90.40;102365.91;10456952;28;20036;-84
2021/12/22 09:57:41;;;;;;;30.50;19.20;;;;;;;-3.11;89.19;102357.34;10446721;28;20131;-83
2021/12/22 10:02:42;;;;;;;29.90;18.03;;;;;;;-2.49;88.25;102358.97;10440941;28;20583;-87
2021/12/22 10:07:44;;;;;;;19.60;13.00;;;;;;;-1.72;86.94;102350.41;10456456;28;20108;-82
2021/12/22 10:12:46;;;;;;;23.58;15.07;;;;;;;-1.49;84.81;102350.59;10466930;28;20396;-93
2021/12/22 10:17:47;;;;;;;21.25;15.32;;;;;;;-1.16;83.55;102350.94;10457762;28;20029;-87
2021/12/22 10:22:49;;;;;;;24.55;14.45;;;;;;;-0.77;82.11;102344.44;10458166;28;20443;-88
2021/12/22 10:28:07;;;;;;;30.73;18.90;;;;;;;-0.70;80.66;102327.16;10453057;28;20067;-89
2021/12/22 10:33:10;;;;;;;24.20;16.02;;;;;;;-0.27;79.38;102344.06;10480328;28;20064;-83
2021/12/22 10:38:12;;;;;;;27.90;15.45;;;;;;;-0.14;79.36;102328.38;10422737;28;20481;-87
2021/12/22 10:43:24;;;;;;;26.92;16.58;;;;;;;-0.21;78.85;102325.09;10438592;28;20473;-86
2021/12/22 10:53:47;;;;;;;39.42;21.95;;;;;;;1.21;77.19;102317.44;10474933;28;20437;-87
2021/12/22 10:58:48;;;;;;;29.67;16.05;;;;;;;1.75;72.65;102315.50;10451321;28;20131;-88
2021/12/22 11:03:53;;;;;;;26.38;18.17;;;;;;;1.35;72.73;102306.06;10470775;28;20033;-87
2021/12/22 11:09:03;;;;;;;20.67;14.77;;;;;;;1.50;73.39;102296.47;10452164;28;20362;-88
2021/12/22 11:14:09;;;;;;;19.48;13.95;;;;;;;1.78;69.59;102283.91;10467554;28;20435;-88
2021/12/22 11:19:10;;;;;;;25.65;16.70;;;;;;;1.12;71.62;102284.75;10456275;28;20163;-89
2021/12/22 11:24:10;;;;;;;27.92;17.23;;;;;;;2.53;69.78;102264.09;10448690;28;20033;-89
2021/12/22 11:29:11;;;;;;;24.55;15.25;;;;;;;2.64;67.51;102258.34;10434599;28;20075;-90
2021/12/22 11:34:12;;;;;;;29.85;17.00;;;;;;;2.16;68.95;102256.97;10461383;28;20497;-90
2021/12/22 11:39:13;;;;;;;19.75;13.35;;;;;;;1.93;69.39;102253.66;10458006;28;20037;-90
2021/12/22 11:44:13;;;;;;;18.30;11.50;;;;;;;1.56;68.26;102261.91;10436384;28;20031;-89
2021/12/22 11:49:17;;;;;;;20.52;11.75;;;;;;;2.99;67.10;102252.31;10455531;28;20100;-94
2021/12/22 11:54:24;;;;;;;15.40;9.75;;;;;;;3.43;63.00;102254.94;10459961;28;20025;-86
2021/12/22 11:59:34;;;;;;;16.48;10.93;;;;;;;3.53;63.31;102240.44;10459990;28;20604;-89
2021/12/22 12:04:34;;;;;;;14.60;9.95;;;;;;;3.61;63.24;102233.44;10459788;28;20492;-87
2021/12/22 12:09:35;;;;;;;18.08;11.55;;;;;;;3.30;62.60;102217.50;10441206;28;20057;-91
2021/12/22 12:25:11;;;;;;;22.08;10.57;;;;;;;3.76;62.25;102194.28;10457338;28;20036;-90
2021/12/22 12:30:18;;;;;;;16.75;10.23;;;;;;;3.52;63.25;102189.44;10455931;28;20495;-91
2021/12/22 12:35:28;;;;;;;17.95;10.07;;;;;;;2.51;64.62;102194.13;10455100;28;20049;-89
2021/12/22 12:41:00;;;;;;;22.52;15.38;;;;;;;1.60;69.12;102183.13;10454202;28;20067;-86
2021/12/22 12:46:00;;;;;;;18.25;12.77;;;;;;;1.05;71.16;102186.84;10442720;28;20079;-92
2021/12/22 12:51:25;;;;;;;21.38;11.90;;;;;;;0.94;71.70;102182.22;10440800;28;20460;-92
2021/12/22 12:56:33;;;;;;;17.45;10.73;;;;;;;1.01;71.65;102183.06;10452161;28;20050;-88
2021/12/22 13:01:52;;;;;;;24.13;12.77;;;;;;;0.78;72.72;102182.22;10439563;28;20477;-88
2021/12/22 13:07:01;;;;;;;22.70;11.73;;;;;;;0.91;73.23;102179.31;10454874;28;20429;-88
2021/12/22 13:12:20;;;;;;;16.98;11.27;;;;;;;1.44;72.10;102176.38;10448800;28;20079;-88
2021/12/22 13:17:20;;;;;;;16.25;10.48;;;;;;;1.38;71.32;102174.81;10454065;28;20060;-87
2021/12/22 13:22:23;;;;;;;18.15;11.85;;;;;;;1.16;72.85;102165.69;10437634;28;20503;-87
2021/12/22 13:27:30;;;;;;;16.20;11.85;;;;;;;1.21;72.37;102165.28;10452564;28;20032;-87
2021/12/22 13:32:30;;;;;;;19.45;11.77;;;;;;;1.08;71.69;102155.34;10453110;28;20088;-87
2021/12/22 13:37:31;;;;;;;15.82;10.10;;;;;;;0.67;72.91;102150.13;10421955;28;20037;-88
2021/12/22 13:42:36;;;;;;;19.85;12.82;;;;;;;0.37;74.85;102140.91;10452097;28;20078;-88
2021/12/22 13:47:36;;;;;;;19.30;12.00;;;;;;;0.14;74.31;102126.44;10436290;28;20032;-89
2021/12/22 13:52:38;;;;;;;20.98;11.70;;;;;;;0.00;75.12;102117.19;10453532;28;20103;-88
2021/12/22 13:57:39;;;;;;;17.42;11.88;;;;;;;-0.17;75.70;102113.69;10434864;28;20120;-89
2021/12/22 14:02:39;;;;;;;18.63;10.93;;;;;;;-0.08;75.96;102111.19;10452444;28;20429;-88
2021/12/22 14:07:40;;;;;;;14.30;10.45;;;;;;;0.10;75.79;102106.25;10452300;28;20041;-89
2021/12/22 14:12:42;;;;;;;16.40;10.23;;;;;;;-0.07;75.36;102107.88;10449848;28;20145;-89
2021/12/22 14:17:46;;;;;;;31.73;17.50;;;;;;;-0.20;76.52;102100.47;10482447;28;20081;-91
2021/12/22 14:22:48;;;;;;;19.33;10.90;;;;;;;-0.34;75.65;102098.94;10472565;28;20392;-90
2021/12/22 14:27:51;;;;;;;18.95;11.05;;;;;;;-0.47;75.43;102085.44;10462841;28;20033;-90
2021/12/22 14:33:06;;;;;;;18.67;12.30;;;;;;;-0.60;77.26;102084.06;10467884;28;20041;-92
2021/12/22 14:38:15;;;;;;;15.07;10.48;;;;;;;-0.71;76.10;102079.38;10453943;28;20101;-91
2021/12/22 14:43:15;;;;;;;22.30;12.23;;;;;;;-0.89;76.30;102068.84;10457382;28;20485;-91
2021/12/22 14:48:19;;;;;;;20.52;13.23;;;;;;;-1.10;77.52;102067.34;10448830;28;20060;-88
2021/12/22 14:53:46;;;;;;;21.42;12.88;;;;;;;-1.17;77.45;102059.69;10417359;28;20481;-91
2021/12/22 14:58:48;;;;;;;18.77;11.65;;;;;;;-1.43;77.74;102052.50;10467999;28;20048;-90
2021/12/22 15:03:49;;;;;;;;;;;;;;;-1.71;78.51;102051.88;10496036;28;20039;-90
2021/12/22 15:08:50;;;;;;;21.92;14.32;;;;;;;-1.93;79.17;102044.25;10502155;28;19920;-90
2021/12/22 15:13:50;;;;;;;25.40;14.50;;;;;;;-2.24;80.47;102035.53;10446886;28;20039;-89
2021/12/22 15:18:52;;;;;;;24.42;14.57;;;;;;;-2.63;81.59;102024.94;10443015;28;20563;-90
2021/12/22 15:23:52;;;;;;;25.23;15.37;;;;;;;-2.91;82.27;102019.09;10490248;28;20029;-90
2021/12/22 15:28:55;;;;;;;28.27;17.83;;;;;;;-3.18;83.63;102025.28;10457068;28;20032;-89
2021/12/22 15:33:56;;;;;;;23.02;14.45;;;;;;;-3.60;83.44;102025.31;10456512;28;20908;-89
2021/12/22 15:38:57;;;;;;;30.83;19.70;;;;;;;-3.92;84.88;102031.59;10459201;28;20040;-89
2021/12/22 15:43:57;;;;;;;39.67;27.10;;;;;;;-4.01;85.96;102032.28;10474073;28;20534;-89
2021/12/22 15:48:59;;;;;;;24.13;13.82;;;;;;;-4.18;86.52;102019.94;10457597;28;20036;-89
2021/12/22 15:54:00;;;;;;;20.92;13.77;;;;;;;-4.42;86.75;102018.69;10456216;28;20106;-89
2021/12/22 15:59:00;;;;;;;25.20;15.80;;;;;;;-4.42;87.26;102025.47;10456070;28;20060;-90
2021/12/22 16:04:01;;;;;;;30.83;20.67;;;;;;;-4.58;87.60;102018.41;10456442;28;20033;-87
2021/12/22 16:09:01;;;;;;;29.50;16.83;;;;;;;-4.74;87.61;102012.09;10438624;28;20485;-88
2021/12/22 16:14:02;;;;;;;38.17;21.37;;;;;;;-4.85;88.00;102010.72;10432724;28;20094;-87
2021/12/22 16:19:03;;;;;;;31.73;18.13;;;;;;;-4.84;88.75;102006.53;10447131;28;20107;-90
2021/12/22 16:24:04;;;;;;;29.50;18.27;;;;;;;-4.95;88.58;101992.38;10443955;28;20028;-87
2021/12/22 16:29:05;;;;;;;39.27;22.30;;;;;;;-4.98;88.88;101997.09;10470173;28;20112;-88
2021/12/22 16:34:05;;;;;;;31.53;18.47;;;;;;;-4.98;89.14;101985.25;10436663;28;20374;-88
2021/12/22 16:39:06;;;;;;;32.33;20.90;;;;;;;-5.04;89.05;101982.81;10449138;28;20370;-89
2021/12/22 16:44:10;;;;;;;24.57;14.47;;;;;;;-5.12;89.48;101985.13;10431408;28;20033;-88
2021/12/22 16:49:11;;;;;;;32.05;20.65;;;;;;;-5.26;89.40;101979.19;10440775;28;20025;-89
2021/12/22 16:54:11;;;;;;;38.33;22.40;;;;;;;-5.35;89.69;101971.22;10456843;28;20033;-89
2021/12/22 16:59:12;;;;;;;40.67;23.57;;;;;;;-5.28;89.97;101962.75;10437604;28;20064;-89
2021/12/22 17:04:14;;;;;;;43.07;25.10;;;;;;;-5.27;90.23;101953.44;10438407;28;20032;-89
2021/12/22 17:09:15;;;;;;;49.90;26.35;;;;;;;-5.34;90.45;101947.53;10457968;28;20086;-88
2021/12/22 17:14:15;;;;;;;39.40;25.77;;;;;;;-5.29;90.57;101944.66;10438466;28;20056;-88
2021/12/22 17:19:16;;;;;;;54.10;32.37;;;;;;;-5.09;90.89;101935.38;10455300;28;20068;-88
2021/12/22 17:24:16;;;;;;;47.23;28.43;;;;;;;-4.95;90.89;101933.63;10455669;28;20135;-88
2021/12/22 17:29:19;;;;;;;54.10;32.07;;;;;;;-4.96;90.87;101936.91;10454705;28;20385;-87
2021/12/22 17:34:19;;;;;;;37.95;24.65;;;;;;;-4.92;90.75;101931.47;10455171;28;20053;-88
2021/12/22 17:39:20;;;;;;;51.17;29.50;;;;;;;-4.80;90.96;101921.91;10439618;28;20060;-87
2021/12/22 17:44:20;;;;;;;53.80;31.87;;;;;;;-4.65;90.92;101920.34;10487327;28;20040;-88
2021/12/22 17:49:21;;;;;;;45.83;29.83;;;;;;;-4.69;90.91;101908.84;10452922;28;20115;-88
2021/12/22 17:54:21;;;;;;;57.07;31.80;;;;;;;-4.70;90.50;101912.13;10452698;28;20056;-86
2021/12/22 17:59:22;;;;;;;48.10;30.60;;;;;;;-4.88;90.27;101900.50;10437616;28;20060;-87
2021/12/22 18:04:22;;;;;;;35.33;23.23;;;;;;;-4.82;90.23;101891.06;10454048;28;20029;-88
2021/12/22 18:09:23;;;;;;;52.10;28.03;;;;;;;-4.77;90.39;101889.09;10449759;28;20112;-87
2021/12/22 18:14:23;;;;;;;54.77;31.63;;;;;;;-4.71;90.25;101877.09;10454337;28;20072;-87
2021/12/22 18:19:24;;;;;;;41.13;25.63;;;;;;;-4.61;90.25;101871.47;10451814;28;20090;-85
2021/12/22 18:24:24;;;;;;;50.33;30.27;;;;;;;-4.64;89.69;101868.53;10453168;28;20037;-83
2021/12/22 18:29:25;;;;;;;45.83;26.70;;;;;;;-4.53;89.65;101872.44;10452603;28;20124;-82
2021/12/22 18:34:28;;;;;;;26.37;21.00;;;;;;;-4.66;89.08;101873.47;10453002;28;20040;-85
2021/12/22 18:39:32;;;;;;;46.08;28.45;;;;;;;-4.66;88.98;101863.25;10442632;28;20485;-84
2021/12/22 18:44:32;;;;;;;39.83;24.98;;;;;;;-4.75;89.31;101854.44;10465438;28;20384;-84
2021/12/22 18:49:33;;;;;;;46.33;27.93;;;;;;;-4.72;89.38;101853.16;10466365;28;20052;-86
2021/12/22 18:54:33;;;;;;;31.50;19.37;;;;;;;-4.72;89.30;101845.50;10449521;28;20033;-85
2021/12/22 18:59:34;;;;;;;36.80;23.87;;;;;;;-4.78;88.67;101846.38;10466497;28;20089;-82
2021/12/22 19:04:34;;;;;;;46.87;26.20;;;;;;;-4.85;88.74;101841.25;10466728;28;20047;-84
2021/12/22 19:09:35;;;;;;;44.60;23.03;;;;;;;-5.01;88.20;101836.78;10466530;28;20203;-84
2021/12/22 19:14:35;;;;;;;50.33;23.47;;;;;;;-4.95;88.75;101844.25;10466306;28;20064;-84
2021/12/22 19:19:36;;;;;;;35.20;22.70;;;;;;;-5.27;88.13;101841.13;10465928;28;20029;-84
2021/12/22 19:24:36;;;;;;;44.73;24.50;;;;;;;-5.52;88.46;101828.75;10499254;28;20021;-84
2021/12/22 19:29:37;;;;;;;36.73;24.20;;;;;;;-5.53;89.22;101820.88;10465174;28;20162;-83
2021/12/22 19:34:37;;;;;;;43.53;27.47;;;;;;;-5.40;89.16;101820.81;10466740;28;20082;-83
2021/12/22 19:39:38;;;;;;;38.97;26.37;;;;;;;-5.48;89.29;101820.75;10433701;28;20489;-84
2021/12/22 19:44:38;;;;;;;35.93;23.60;;;;;;;-5.54;89.42;101807.22;10465966;28;20037;-83
2021/12/22 19:49:39;;;;;;;37.47;24.77;;;;;;;-5.54;89.81;101813.94;10497526;28;20173;-83
2021/12/22 19:54:39;;;;;;;38.17;24.93;;;;;;;-5.55;90.03;101810.50;10458107;28;20048;-83
2021/12/22 19:59:40;;;;;;;50.40;31.33;;;;;;;-5.37;90.07;101800.78;10458429;28;20087;-83
2021/12/22 20:04:41;;;;;;;42.83;28.23;;;;;;;-5.26;90.63;101794.47;10440768;28;20030;-82
2021/12/22 20:09:41;;;;;;;34.67;23.00;;;;;;;-5.20;90.13;101785.97;10456819;28;20043;-83
2021/12/22 20:14:42;;;;;;;37.03;24.30;;;;;;;-5.39;89.79;101784.38;10457158;28;20076;-83
2021/12/22 20:19:43;;;;;;;58.33;29.73;;;;;;;-5.31;90.23;101789.69;10457732;28;20036;-83
2021/12/22 20:24:43;;;;;;;42.27;23.47;;;;;;;-5.43;89.71;101785.59;10457709;28;20068;-82
2021/12/22 20:29:44;;;;;;;43.07;24.13;;;;;;;-5.66;89.64;101798.03;10452267;28;20021;-83
2021/12/22 20:34:44;;;;;;;35.97;20.97;;;;;;;-5.91;89.22;101790.69;10457357;28;20075;-83
2021/12/22 20:39:45;;;;;;;34.90;23.47;;;;;;;-6.13;89.05;101786.13;10457369;28;20084;-82
2021/12/22 20:44:46;;;;;;;42.30;23.47;;;;;;;-6.09;89.50;101793.47;10455342;28;20039;-83
2021/12/22 20:49:47;;;;;;;45.13;26.05;;;;;;;-6.03;89.91;101784.06;10458264;28;20036;-83
2021/12/22 20:54:47;;;;;;;38.70;20.13;;;;;;;-5.92;90.02;101791.41;10456801;28;20048;-82
2021/12/22 20:59:48;;;;;;;40.30;26.23;;;;;;;-5.91;90.04;101792.34;10414351;28;20531;-82
2021/12/22 21:04:49;;;;;;;52.10;30.17;;;;;;;-5.79;90.17;101787.88;10413322;28;20027;-82
2021/12/22 21:09:50;;;;;;;44.90;25.73;;;;;;;-5.54;90.80;101773.13;10455589;28;20461;-82
2021/12/22 21:14:50;;;;;;;46.70;30.67;;;;;;;-5.31;90.75;101758.19;10454941;28;20092;-82
2021/12/22 21:19:51;;;;;;;53.30;33.73;;;;;;;-5.17;90.91;101758.25;10454558;28;20476;-83
2021/12/22 21:24:53;;;;;;;54.70;34.30;;;;;;;-5.13;90.87;101743.31;10455193;28;20067;-82
2021/12/22 21:29:54;;;;;;;51.95;31.70;;;;;;;-5.02;90.46;101751.56;10455442;28;20036;-82
2021/12/22 21:34:54;;;;;;;54.57;35.97;;;;;;;-5.02;90.50;101750.69;10453190;28;20110;-81
2021/12/22 21:39:55;;;;;;;47.47;29.77;;;;;;;-5.03;90.46;101731.88;10471828;28;20408;-82
2021/12/22 21:44:55;;;;;;;46.77;32.63;;;;;;;-5.13;90.33;101739.13;10455216;28;20431;-81
2021/12/22 21:49:58;;;;;;;43.00;30.20;;;;;;;-5.22;90.25;101703.19;10452434;28;20052;-82
2021/12/22 21:54:59;;;;;;;51.33;32.63;;;;;;;-4.99;90.24;101700.00;10436945;28;20079;-82
2021/12/22 22:00:01;;;;;;;50.97;34.37;;;;;;;-4.84;90.22;101677.94;10466042;28;20484;-82
2021/12/22 22:05:06;;;;;;;51.05;31.23;;;;;;;-4.81;90.02;101675.78;10437981;28;20025;-81
2021/12/22 22:10:09;;;;;;;48.33;30.48;;;;;;;-4.63;90.20;101696.63;10457640;28;20029;-82
2021/12/22 22:15:12;;;;;;;46.25;27.65;;;;;;;-4.64;89.38;101688.06;10451019;28;20031;-82
2021/12/22 22:20:17;;;;;;;42.58;27.58;;;;;;;-4.64;89.25;101671.81;10435779;28;20441;-82
2021/12/22 22:25:22;;;;;;;43.55;24.92;;;;;;;-4.57;88.91;101682.03;10435056;28;20021;-82
2021/12/22 22:30:23;;;;;;;37.22;23.88;;;;;;;-4.73;88.73;101680.19;10453165;28;20419;-82
2021/12/22 22:35:24;;;;;;;40.53;26.10;;;;;;;-4.63;88.69;101673.63;10441219;28;20048;-82
2021/12/22 22:40:24;;;;;;;40.53;27.93;;;;;;;-4.57;88.22;101649.75;10453172;28;20505;-82
2021/12/22 22:45:25;;;;;;;34.87;21.37;;;;;;;-4.60;87.92;101651.00;10452550;28;20032;-82
2021/12/22 22:50:25;;;;;;;44.93;27.57;;;;;;;-4.41;87.54;101641.38;10451643;28;20029;-82
2021/12/22 22:55:26;;;;;;;40.27;23.73;;;;;;;-4.29;87.27;101621.44;10452772;28;20136;-82
2021/12/22 23:00:31;;;;;;;32.17;21.30;;;;;;;-4.29;86.31;101601.94;10436927;28;20063;-82
2021/12/22 23:05:40;;;;;;;36.45;23.90;;;;;;;-4.22;86.49;101590.78;10451926;28;20044;-82
2021/12/22 23:10:40;;;;;;;37.72;23.98;;;;;;;-4.28;85.97;101595.16;10430046;28;20091;-83
2021/12/22 23:15:41;;;;;;;30.23;20.80;;;;;;;-4.30;85.81;101597.56;10447318;28;20370;-83